Madison, SD

11:19 AM CDT on March 28, 2017 (GMT -0500)
Madison Municipal

Weather History for KMDS - June, 2013

Change the Weather History Date:

Saturday, June 15, 2013

  Actual Average Record
Temperature  
Mean Temperature 68 °F -  
Max Temperature 77 °F 77 °F 80 °F (2012)
Min Temperature 60 °F 53 °F 55 °F (2011)
Cooling Degree Days 4    
Growing Degree Days 18 (Base 50)    
Moisture  
Dew Point 57 °F    
Average Humidity 72    
Maximum Humidity 100    
Minimum Humidity 34    
Precipitation  
Precipitation 0.04 in - - ()
Sea Level Pressure  
Sea Level Pressure 29.94 in    
Wind  
Wind Speed 7 mph (North)    
Max Wind Speed 16 mph    
Max Gust Speed -    
Visibility 10 miles    
Events Rain , Thunderstorm    
Averages and records for this station are not official NWS values.
T = Trace of Precipitation, MM = Missing Value Source: NWS Daily Summary

Daily Weather History Graph

Daily Weather History Graph

Search for Another Location

Airport or City:

Trip Planner

Search our weather history database for the weather conditions in past years. The results will help you decide how hot, cold, wet, or windy it might be!

Date:

Astronomy

Jun. 15, 2013 Rise Set
Actual Time 5:44 AM CDT 9:13 PM CDT
Civil Twilight 5:08 AM CDT 9:49 PM CDT
Nautical Twilight 4:20 AM CDT 10:37 PM CDT
Astronomical Twilight 3:20 AM CDT 11:38 PM CDT
Moon 12:33 PM CDT (6/15) 12:37 AM CDT (6/15)
Length of Visible Light 16h 41m
Length of Day
15h 28m
Waxing Crescent, 40% of the Moon is Illuminated
Jun 15
Waxing Crescent
Jun 16
First Quarter
Jun 23
Full
Jun 29
Last Quarter
Jul 8
New

Hourly Weather History & Observations

Time (CDT) Temp. Dew Point Humidity Pressure Visibility Wind Dir Wind Speed Gust Speed Precip Events Conditions
12:10 AM 69.8 °F 68.0 °F 94% 29.85 in 10.0 mi West 6.9 mph - N/A   Clear
12:30 AM 69.8 °F 68.0 °F 94% 29.87 in 10.0 mi West 8.1 mph - N/A   Clear
12:50 AM 69.8 °F 68.0 °F 94% 29.88 in 10.0 mi West 5.8 mph - N/A   Clear
1:10 AM 68.0 °F 68.0 °F 100% 29.89 in 10.0 mi WNW 5.8 mph - N/A   Clear
1:30 AM 66.2 °F 66.2 °F 100% 29.89 in 10.0 mi SSE 4.6 mph - N/A   Clear
1:50 AM 66.2 °F 66.2 °F 100% 29.89 in 10.0 mi SSW 3.5 mph - N/A   Clear
2:10 AM 64.4 °F 64.4 °F 100% 29.90 in 10.0 mi Calm Calm - N/A   Clear
2:30 AM 66.2 °F 66.2 °F 100% 29.89 in 10.0 mi Calm Calm - N/A   Clear
2:50 AM 64.4 °F 64.4 °F 100% 29.88 in 10.0 mi ESE 3.5 mph - N/A   Clear
3:10 AM 64.4 °F 64.4 °F 100% 29.90 in 10.0 mi ESE 3.5 mph - N/A   Clear
3:30 AM 64.4 °F 64.4 °F 100% 29.89 in 10.0 mi SSE 4.6 mph - N/A   Clear
3:50 AM 64.4 °F 64.4 °F 100% 29.89 in 10.0 mi Calm Calm - N/A   Clear
4:10 AM 62.6 °F 62.6 °F 100% 29.90 in 10.0 mi WNW 3.5 mph - N/A   Clear
4:30 AM 62.6 °F 62.6 °F 100% 29.92 in 10.0 mi SW 5.8 mph - N/A   Clear
4:50 AM 62.6 °F 62.6 °F 100% 29.93 in 10.0 mi West 4.6 mph - N/A   Clear
5:10 AM 62.6 °F 62.6 °F 100% 29.92 in 10.0 mi North 5.8 mph - N/A   Clear
5:30 AM 64.4 °F 64.4 °F 100% 29.90 in 10.0 mi North 8.1 mph - N/A   Clear
5:50 AM 64.4 °F 64.4 °F 100% 29.92 in 10.0 mi North 3.5 mph - N/A   Clear
6:10 AM 64.4 °F 64.4 °F 100% 29.92 in 10.0 mi North 8.1 mph - N/A   Clear
6:30 AM 64.4 °F 64.4 °F 100% 29.91 in 10.0 mi North 12.7 mph - N/A   Clear
6:50 AM 64.4 °F 64.4 °F 100% 29.91 in 10.0 mi North 15.0 mph - N/A   Clear
7:10 AM 66.2 °F 66.2 °F 100% 29.93 in 10.0 mi North 12.7 mph - N/A   Clear
7:30 AM 66.2 °F 66.2 °F 100% 29.95 in 10.0 mi NNE 9.2 mph - N/A   Partly Cloudy
7:50 AM 66.2 °F 64.4 °F 94% 29.96 in 10.0 mi NE 9.2 mph - N/A   Partly Cloudy
8:10 AM 66.2 °F 64.4 °F 94% 29.99 in 10.0 mi NNE 8.1 mph - N/A   Clear
8:30 AM 64.4 °F 62.6 °F 94% 29.99 in 10.0 mi NNE 10.4 mph - N/A   Clear
8:50 AM 64.4 °F 62.6 °F 94% 29.98 in 10.0 mi North 11.5 mph - N/A   Clear
9:10 AM 62.6 °F 59.0 °F 88% 29.99 in 10.0 mi NNE 11.5 mph - N/A Rain , Thunderstorm Light Rain
9:30 AM 62.6 °F 62.6 °F 100% 30.01 in 10.0 mi NNW 5.8 mph - N/A Rain Light Rain
9:50 AM 60.8 °F 60.8 °F 100% 30.01 in 10.0 mi Calm Calm - 0.01 in Rain , Thunderstorm Light Rain
10:10 AM 60.8 °F 60.8 °F 100% 29.98 in 10.0 mi ENE 11.5 mph - 0.02 in Rain Rain
10:30 AM 60.8 °F 60.8 °F 100% 29.96 in 10.0 mi East 9.2 mph - 0.03 in Rain , Thunderstorm Light Rain
10:50 AM 60.8 °F 60.8 °F 100% 29.92 in 10.0 mi ENE 16.1 mph - 0.03 in Rain Light Rain
11:10 AM 60.8 °F 60.8 °F 100% 29.94 in 10.0 mi NNE 11.5 mph - N/A   Clear
11:30 AM 64.4 °F 59.0 °F 83% 29.94 in 10.0 mi NE 11.5 mph - N/A   Clear
11:50 AM 66.2 °F 60.8 °F 83% 29.95 in 10.0 mi NE 13.8 mph - N/A   Clear
12:10 PM 69.8 °F 57.2 °F 64% 29.95 in 10.0 mi ENE 15.0 mph - N/A   Clear
12:30 PM 71.6 °F 57.2 °F 60% 29.96 in 10.0 mi NE 12.7 mph - N/A   Clear
12:50 PM 73.4 °F 57.2 °F 57% 29.96 in 10.0 mi NE 11.5 mph - N/A   Clear
1:10 PM 73.4 °F 55.4 °F 53% 29.95 in 10.0 mi NNE 15.0 mph - N/A   Clear
1:30 PM 75.2 °F 55.4 °F 50% 29.96 in 10.0 mi NE 12.7 mph - N/A   Clear
1:50 PM 75.2 °F 55.4 °F 50% 29.96 in 9.0 mi NE 9.2 mph - N/A   Clear
2:10 PM 77.0 °F 55.4 °F 47% 29.97 in 10.0 mi North 8.1 mph - N/A   Clear
2:30 PM 77.0 °F 50.0 °F 39% 29.97 in 10.0 mi North 5.8 mph - N/A   Clear
2:50 PM 77.0 °F 50.0 °F 39% 29.96 in 10.0 mi NNE 8.1 mph - N/A   Clear
3:10 PM 77.0 °F 48.2 °F 36% 29.96 in 10.0 mi North 5.8 mph - N/A   Clear
3:30 PM 77.0 °F 50.0 °F 39% 29.96 in 10.0 mi NNE 3.5 mph - N/A   Clear
3:50 PM 77.0 °F 46.4 °F 34% 29.95 in 10.0 mi NNE 5.8 mph - N/A   Clear
4:10 PM 77.0 °F 46.4 °F 34% 29.95 in 10.0 mi Calm Calm - N/A   Clear
4:30 PM 77.0 °F 48.2 °F 36% 29.95 in 10.0 mi NW 5.8 mph - N/A   Clear
4:50 PM 77.0 °F 46.4 °F 34% 29.94 in 10.0 mi Calm Calm - N/A   Clear
5:10 PM 77.0 °F 46.4 °F 34% 29.93 in 10.0 mi NW 8.1 mph - N/A   Clear
5:30 PM 77.0 °F 46.4 °F 34% 29.93 in 10.0 mi NNW 8.1 mph - N/A   Clear
5:50 PM 77.0 °F 46.4 °F 34% 29.93 in 10.0 mi NNE 4.6 mph - N/A   Clear
6:10 PM 77.0 °F 46.4 °F 34% 29.93 in 10.0 mi North 6.9 mph - N/A   Clear
6:30 PM 77.0 °F 46.4 °F 34% 29.93 in 10.0 mi NNW 6.9 mph - N/A   Clear
6:50 PM 77.0 °F 48.2 °F 36% 29.93 in 10.0 mi NNW 6.9 mph - N/A   Clear
7:10 PM 77.0 °F 50.0 °F 39% 29.93 in 10.0 mi NW 11.5 mph - N/A   Clear
7:30 PM 75.2 °F 50.0 °F 41% 29.93 in 10.0 mi NW 6.9 mph - N/A   Clear
7:50 PM 73.4 °F 48.2 °F 41% 29.93 in 10.0 mi NW 8.1 mph - N/A   Clear
8:10 PM 71.6 °F 50.0 °F 46% 29.93 in 10.0 mi NW 8.1 mph - N/A   Clear
8:30 PM 69.8 °F 50.0 °F 49% 29.93 in 10.0 mi NW 6.9 mph - N/A   Clear
8:50 PM 69.8 °F 50.0 °F 49% 29.94 in 10.0 mi NW 5.8 mph - N/A   Clear
9:10 PM 66.2 °F 50.0 °F 56% 29.94 in 10.0 mi NW 6.9 mph - N/A   Clear
9:30 PM 64.4 °F 51.8 °F 64% 29.95 in 10.0 mi NW 6.9 mph - N/A   Clear
9:50 PM 66.2 °F 50.0 °F 56% 29.97 in 10.0 mi NW 6.9 mph - N/A   Clear
10:10 PM 66.2 °F 50.0 °F 56% 29.97 in 10.0 mi WNW 4.6 mph - N/A   Clear
10:30 PM 62.6 °F 50.0 °F 63% 29.98 in 10.0 mi WNW 6.9 mph - N/A   Clear
10:50 PM 62.6 °F 50.0 °F 63% 29.98 in 10.0 mi NW 6.9 mph - N/A   Clear
11:10 PM 62.6 °F 50.0 °F 63% 29.98 in 10.0 mi NW 6.9 mph - N/A   Clear
11:30 PM 62.6 °F 48.2 °F 59% 29.99 in 10.0 mi WNW 6.9 mph - N/A   Clear
11:50 PM 62.6 °F 48.2 °F 59% 29.98 in 10.0 mi WNW 5.8 mph - N/A   Clear